createdAt,value
2023-04-05T00:00:32.560Z,9.05
2023-04-05T00:03:00.289Z,9.60
2023-04-05T00:05:31.573Z,9.05
2023-04-05T00:08:01.874Z,9.80
2023-04-05T00:10:30.073Z,10.10
2023-04-05T00:12:58.088Z,10.00
2023-04-05T00:15:27.450Z,9.07
2023-04-05T00:17:54.984Z,9.43
2023-04-05T00:20:21.876Z,8.57
2023-04-05T00:22:50.820Z,8.38
2023-04-05T00:25:18.260Z,8.70
2023-04-05T00:27:45.096Z,9.45
2023-04-05T00:30:12.788Z,8.80
2023-04-05T00:32:39.590Z,7.78
2023-04-05T00:35:07.322Z,8.63
2023-04-05T00:37:34.442Z,8.50
2023-04-05T00:40:01.368Z,8.73
2023-04-05T00:42:28.207Z,8.25
2023-04-05T00:44:54.996Z,7.45
2023-04-05T00:47:21.918Z,8.25
2023-04-05T00:49:48.756Z,7.47
2023-04-05T00:52:16.243Z,7.72
2023-04-05T00:54:43.898Z,7.95
2023-04-05T00:57:11.528Z,7.55
2023-04-05T00:59:38.433Z,7.40
2023-04-05T01:02:13.612Z,7.68
2023-04-05T01:04:46.632Z,7.00
2023-04-05T01:07:23.682Z,7.05
2023-04-05T01:09:55.407Z,6.70
2023-04-05T01:12:26.195Z,6.80
2023-04-05T01:14:54.651Z,8.73
2023-04-05T01:17:23.827Z,7.47
2023-04-05T01:20:03.970Z,6.72
2023-04-05T01:23:00.018Z,7.28
2023-04-05T01:25:38.968Z,7.23
2023-04-05T01:28:27.334Z,6.70
2023-04-05T01:31:07.415Z,7.55
2023-04-05T01:33:55.368Z,7.72
2023-04-05T01:36:39.815Z,8.57
2023-04-05T01:39:09.433Z,8.70
2023-04-05T01:41:36.327Z,8.93
2023-04-05T01:44:03.141Z,8.15
2023-04-05T01:46:30.908Z,7.60
2023-04-05T01:48:57.965Z,7.53
2023-04-05T01:51:25.652Z,8.13
2023-04-05T01:53:52.502Z,7.65
2023-04-05T01:56:19.304Z,7.53
2023-04-05T01:58:46.361Z,6.40
2023-04-05T02:01:13.179Z,7.45
2023-04-05T02:03:40.101Z,7.07
2023-04-05T02:06:07.093Z,6.72
2023-04-05T02:08:33.874Z,7.07
2023-04-05T02:11:01.039Z,6.45
2023-04-05T02:13:27.861Z,6.70
2023-04-05T02:15:54.632Z,6.90
2023-04-05T02:18:30.122Z,6.20
2023-04-05T02:21:08.484Z,6.88
2023-04-05T02:23:35.556Z,6.35
2023-04-05T02:26:02.426Z,7.05
2023-04-05T02:28:29.528Z,7.18
2023-04-05T02:30:56.916Z,6.00
2023-04-05T02:33:23.802Z,7.13
2023-04-05T02:35:52.151Z,7.22
2023-04-05T02:38:19.261Z,7.05
2023-04-05T02:40:49.810Z,7.13
2023-04-05T02:43:16.656Z,6.95
2023-04-05T02:45:44.979Z,7.20
2023-04-05T02:48:13.640Z,7.88
2023-04-05T02:50:40.705Z,8.20
2023-04-05T02:53:07.712Z,6.63
2023-04-05T02:55:34.465Z,6.82
2023-04-05T02:58:01.616Z,6.75
2023-04-05T03:00:29.050Z,5.97
2023-04-05T03:02:56.701Z,6.50
2023-04-05T03:05:23.678Z,8.55
2023-04-05T03:07:52.119Z,6.15
2023-04-05T03:10:22.385Z,8.13
2023-04-05T03:12:51.504Z,7.65
2023-04-05T03:15:18.391Z,7.28
2023-04-05T03:17:45.912Z,5.30
2023-04-05T03:20:13.267Z,5.55
2023-04-05T03:22:41.040Z,4.50
2023-04-05T03:25:08.125Z,5.32
2023-04-05T03:27:35.145Z,5.13
2023-04-05T03:30:02.109Z,5.20
2023-04-05T03:32:29.068Z,5.70
2023-04-05T03:34:55.938Z,5.95
2023-04-05T03:37:22.696Z,8.30
2023-04-05T03:39:49.554Z,6.20
2023-04-05T03:42:16.473Z,4.95
2023-04-05T03:44:43.365Z,4.60
2023-04-05T03:47:10.972Z,4.15
2023-04-05T03:49:38.203Z,4.80
2023-04-05T03:52:05.079Z,4.40
2023-04-05T03:54:31.874Z,4.25
2023-04-05T03:57:00.114Z,4.10
2023-04-05T03:59:27.073Z,4.32
2023-04-05T04:01:53.884Z,4.10
2023-04-05T04:04:21.031Z,3.80
2023-04-05T04:06:47.843Z,4.10
2023-04-05T04:09:14.613Z,4.50
2023-04-05T04:11:41.417Z,4.57
2023-04-05T04:14:08.694Z,3.92
2023-04-05T04:16:35.574Z,5.30
2023-04-05T04:19:02.507Z,3.70
2023-04-05T04:21:32.576Z,4.20
2023-04-05T04:24:00.919Z,3.88
2023-04-05T04:26:29.231Z,3.67
2023-04-05T04:28:56.912Z,3.65
2023-04-05T04:31:23.820Z,3.22
2023-04-05T04:33:51.093Z,3.05
2023-04-05T04:36:26.653Z,3.17
2023-04-05T04:38:53.779Z,5.07
2023-04-05T04:41:22.678Z,3.97
2023-04-05T04:43:49.558Z,3.40
2023-04-05T04:46:19.049Z,3.35
2023-04-05T04:48:47.415Z,2.92
2023-04-05T04:51:14.345Z,3.28
2023-04-05T04:53:41.149Z,3.00
2023-04-05T04:56:08.801Z,2.90
2023-04-05T04:58:35.819Z,3.10
2023-04-05T05:01:08.970Z,2.97
2023-04-05T05:03:38.649Z,2.95
2023-04-05T05:06:05.979Z,2.97
2023-04-05T05:08:32.872Z,2.85
2023-04-05T05:10:59.990Z,2.78
2023-04-05T05:13:26.962Z,3.13
2023-04-05T05:15:53.813Z,3.13
2023-04-05T05:18:20.581Z,3.03
2023-04-05T05:20:50.880Z,3.15
2023-04-05T05:23:17.983Z,3.40
2023-04-05T05:25:44.743Z,3.60
2023-04-05T05:28:11.490Z,3.35
2023-04-05T05:30:38.522Z,3.60
2023-04-05T05:33:05.479Z,4.10
2023-04-05T05:35:32.413Z,4.53
2023-04-05T05:37:59.208Z,2.92
2023-04-05T05:40:26.988Z,2.70
2023-04-05T05:42:53.824Z,2.60
2023-04-05T05:45:20.578Z,2.90
2023-04-05T05:47:47.403Z,4.28
2023-04-05T05:50:16.584Z,3.72
2023-04-05T05:52:43.357Z,3.72
2023-04-05T05:55:10.349Z,2.90
2023-04-05T05:57:38.872Z,2.90
2023-04-05T06:00:10.916Z,3.33
2023-04-05T06:02:37.947Z,3.17
2023-04-05T06:05:05.254Z,3.03
2023-04-05T06:07:35.976Z,3.10
2023-04-05T06:10:03.293Z,3.05
2023-04-05T06:12:30.486Z,3.55
2023-04-05T06:14:57.286Z,2.63
2023-04-05T06:17:24.091Z,2.80
2023-04-05T06:19:51.830Z,2.35
2023-04-05T06:22:19.617Z,2.60
2023-04-05T06:24:46.521Z,3.28
2023-04-05T06:27:14.714Z,3.20
2023-04-05T06:29:41.499Z,2.85
2023-04-05T06:32:08.357Z,2.95
2023-04-05T06:34:35.161Z,2.72
2023-04-05T06:37:02.843Z,2.97
2023-04-05T06:39:29.730Z,3.00
2023-04-05T06:41:56.779Z,3.30
2023-04-05T06:44:23.565Z,3.08
2023-04-05T06:46:50.345Z,2.63
2023-04-05T06:49:17.216Z,2.55
2023-04-05T06:51:43.997Z,3.35
2023-04-05T06:54:11.959Z,2.75
2023-04-05T06:56:39.187Z,2.90
2023-04-05T06:59:06.332Z,2.92
2023-04-05T07:01:33.757Z,2.85
2023-04-05T07:06:27.902Z,2.85
2023-04-05T07:08:54.802Z,3.38
2023-04-05T07:11:21.605Z,2.78
2023-04-05T07:13:48.398Z,3.03
2023-04-05T07:16:15.739Z,3.22
2023-04-05T07:18:42.492Z,2.80
2023-04-05T07:21:09.296Z,3.08
2023-04-05T07:23:36.130Z,2.90
2023-04-05T07:26:08.095Z,2.78
2023-04-05T07:28:36.184Z,2.67
2023-04-05T07:31:04.545Z,3.08
2023-04-05T07:33:31.376Z,2.90
2023-04-05T07:35:58.586Z,3.45
2023-04-05T07:38:27.610Z,3.80
2023-04-05T07:40:54.423Z,4.28
2023-04-05T07:43:21.257Z,4.25
2023-04-05T07:45:48.138Z,3.60
2023-04-05T07:48:14.984Z,3.83
2023-04-05T07:50:42.773Z,4.10
2023-04-05T07:53:09.719Z,4.05
2023-04-05T07:55:38.920Z,4.60
2023-04-05T07:58:05.680Z,5.28
2023-04-05T08:00:32.595Z,4.82
2023-04-05T08:03:02.124Z,5.05
2023-04-05T08:05:29.627Z,4.38
2023-04-05T08:07:58.344Z,4.15
2023-04-05T08:10:25.722Z,3.92
2023-04-05T08:12:52.835Z,4.18
2023-04-05T08:15:19.666Z,3.67
2023-04-05T08:17:46.533Z,4.30
2023-04-05T08:20:13.518Z,4.65
2023-04-05T08:22:40.347Z,4.25
2023-04-05T08:25:07.850Z,4.38
2023-04-05T08:27:34.653Z,4.68
2023-04-05T08:30:01.537Z,5.13
2023-04-05T08:32:28.544Z,4.40
2023-04-05T08:34:55.391Z,4.00
2023-04-05T08:37:22.250Z,4.55
2023-04-05T08:39:49.162Z,4.40
2023-04-05T08:42:25.492Z,4.50
2023-04-05T08:44:53.166Z,4.78
2023-04-05T08:47:23.114Z,5.20
2023-04-05T08:49:50.483Z,5.28
2023-04-05T08:52:17.253Z,4.93
2023-04-05T08:54:44.081Z,4.80
2023-04-05T08:57:11.717Z,4.70
2023-04-05T08:59:41.638Z,4.03
2023-04-05T09:02:29.354Z,3.97
2023-04-05T09:04:57.723Z,4.63
2023-04-05T09:07:26.507Z,4.65
2023-04-05T09:09:54.845Z,4.22
2023-04-05T09:12:25.838Z,4.35
2023-04-05T09:14:53.535Z,4.07
2023-04-05T09:17:21.559Z,4.22
2023-04-05T09:19:51.346Z,4.30
2023-04-05T09:22:18.656Z,5.13
2023-04-05T09:24:47.111Z,4.78
2023-04-05T09:27:14.959Z,3.50
2023-04-05T09:29:46.643Z,3.63
2023-04-05T09:32:14.714Z,3.88
2023-04-05T09:34:42.797Z,3.40
2023-04-05T09:37:20.338Z,3.15
2023-04-05T09:39:52.538Z,4.00
2023-04-05T09:42:22.966Z,4.28
2023-04-05T09:45:05.096Z,5.13
2023-04-05T09:47:35.022Z,5.25
2023-04-05T09:50:06.253Z,5.07
2023-04-05T09:52:35.282Z,5.78
2023-04-05T09:55:04.444Z,5.43
2023-04-05T09:57:35.080Z,5.35
2023-04-05T10:00:02.093Z,5.28
2023-04-05T10:02:40.034Z,6.18
2023-04-05T10:05:14.034Z,5.80
2023-04-05T10:07:45.161Z,4.82
2023-04-05T10:10:13.351Z,5.85
2023-04-05T10:12:41.880Z,5.82
2023-04-05T10:15:14.194Z,5.93
2023-04-05T10:17:58.696Z,5.75
2023-04-05T10:20:28.064Z,5.32
2023-04-05T10:23:01.377Z,5.80
2023-04-05T10:25:53.706Z,6.18
2023-04-05T10:28:37.713Z,7.80
2023-04-05T10:31:36.918Z,8.13
2023-04-05T10:34:06.836Z,7.95
2023-04-05T10:36:45.464Z,9.07
2023-04-05T10:39:31.164Z,9.90
2023-04-05T10:42:16.016Z,9.27
2023-04-05T10:44:45.997Z,9.63
2023-04-05T10:47:17.436Z,11.75
2023-04-05T10:49:48.345Z,10.73
2023-04-05T10:52:17.552Z,10.02
2023-04-05T10:54:44.987Z,8.32
2023-04-05T10:57:12.767Z,8.45
2023-04-05T10:59:45.664Z,7.38
2023-04-05T11:02:13.845Z,7.63
2023-04-05T11:04:42.373Z,8.38
2023-04-05T11:07:19.759Z,9.65
2023-04-05T11:10:02.525Z,10.35
2023-04-05T11:12:51.040Z,10.40
2023-04-05T11:15:33.037Z,11.20
2023-04-05T11:18:07.740Z,9.40
2023-04-05T11:20:44.192Z,9.52
2023-04-05T11:23:12.846Z,9.77
2023-04-05T11:25:40.553Z,9.40
2023-04-05T11:28:10.684Z,10.25
2023-04-05T11:30:57.071Z,9.93
2023-04-05T11:33:37.772Z,10.00
2023-04-05T11:36:05.629Z,9.90
2023-04-05T11:38:32.594Z,9.98
2023-04-05T11:41:21.141Z,9.05
2023-04-05T11:43:48.076Z,9.80
2023-04-05T11:46:18.478Z,10.02
2023-04-05T11:48:51.146Z,10.77
2023-04-05T11:51:23.166Z,11.07
2023-04-05T11:53:50.350Z,10.25
2023-04-05T11:56:17.126Z,9.68
2023-04-05T11:58:43.987Z,9.52
2023-04-05T12:01:10.930Z,8.60
2023-04-05T12:03:38.194Z,9.90
2023-04-05T12:06:06.856Z,9.25
2023-04-05T12:08:50.229Z,9.07
2023-04-05T12:11:24.366Z,10.13
2023-04-05T12:13:55.313Z,9.52
2023-04-05T12:16:22.123Z,12.38
2023-04-05T12:18:59.680Z,9.60
2023-04-05T12:21:27.654Z,10.60
2023-04-05T12:23:54.896Z,10.25
2023-04-05T12:26:22.473Z,10.30
2023-04-05T12:28:58.418Z,8.90
2023-04-05T12:34:04.694Z,8.50
2023-04-05T12:36:32.430Z,8.30
2023-04-05T12:38:59.833Z,8.00
2023-04-05T12:41:31.232Z,8.63
2023-04-05T12:44:01.950Z,9.00
2023-04-05T12:46:48.327Z,8.27
2023-04-05T12:51:46.710Z,8.43
2023-04-05T12:54:24.135Z,9.27
2023-04-05T12:56:53.167Z,9.30
2023-04-05T12:59:20.631Z,9.70
2023-04-05T13:01:47.653Z,9.73
2023-04-05T13:04:16.533Z,9.38
2023-04-05T13:06:47.800Z,9.00
2023-04-05T13:09:15.026Z,9.27
2023-04-05T13:11:41.819Z,8.50
2023-04-05T13:14:08.937Z,10.30
2023-04-05T13:16:35.906Z,8.95
2023-04-05T13:19:02.899Z,9.82
2023-04-05T13:21:29.722Z,9.68
2023-04-05T13:23:56.579Z,9.65
2023-04-05T13:26:23.586Z,9.95
2023-04-05T13:28:50.958Z,10.38
2023-04-05T13:31:18.140Z,10.57
2023-04-05T13:33:45.239Z,10.23
2023-04-05T13:36:13.435Z,9.50
2023-04-05T13:38:41.188Z,9.18
2023-04-05T13:41:08.284Z,9.82
2023-04-05T13:43:35.298Z,9.60
2023-04-05T13:46:02.216Z,9.55
2023-04-05T13:48:29.131Z,10.32
2023-04-05T13:50:56.562Z,9.52
2023-04-05T13:53:23.609Z,10.55
2023-04-05T13:55:50.520Z,10.82
2023-04-05T13:58:17.313Z,11.82
2023-04-05T14:00:44.223Z,10.93
2023-04-05T14:03:11.446Z,11.23
2023-04-05T14:05:38.605Z,10.90
2023-04-05T14:08:05.807Z,11.55
2023-04-05T14:10:32.629Z,11.52
2023-04-05T14:12:59.525Z,11.50
2023-04-05T14:15:27.587Z,11.85
2023-04-05T14:17:54.508Z,11.23
2023-04-05T14:20:23.584Z,10.57
2023-04-05T14:22:50.499Z,11.77
2023-04-05T14:25:17.481Z,11.77
2023-04-05T14:27:44.278Z,11.70
2023-04-05T14:30:14.011Z,12.20
2023-04-05T14:32:42.025Z,12.70
2023-04-05T14:35:09.357Z,11.52
2023-04-05T14:37:36.732Z,11.43
2023-04-05T14:40:03.922Z,12.68
2023-04-05T14:42:45.152Z,12.95
2023-04-05T14:45:16.533Z,12.25
2023-04-05T14:47:43.369Z,13.57
2023-04-05T14:50:10.753Z,12.93
2023-04-05T14:52:37.605Z,13.10
2023-04-05T14:55:04.741Z,13.30
2023-04-05T14:57:31.664Z,13.32
2023-04-05T14:59:58.450Z,14.27
2023-04-05T15:02:25.859Z,14.27
2023-04-05T15:04:52.670Z,14.13
2023-04-05T15:07:19.441Z,13.40
2023-04-05T15:09:46.278Z,14.70
2023-04-05T15:12:13.047Z,14.77
2023-04-05T15:14:40.365Z,14.65
2023-04-05T15:17:07.182Z,14.32
2023-04-05T15:19:35.902Z,16.25
2023-04-05T15:22:03.028Z,17.17
2023-04-05T15:24:30.019Z,16.35
2023-04-05T15:27:02.129Z,15.43
2023-04-05T15:29:31.876Z,15.65
2023-04-05T15:31:59.580Z,17.75
2023-04-05T15:34:27.633Z,16.38
2023-04-05T15:36:54.989Z,17.58
2023-04-05T15:39:22.700Z,17.25
2023-04-05T15:41:49.950Z,18.60
2023-04-05T15:44:17.162Z,17.17
2023-04-05T15:46:44.374Z,16.98
2023-04-05T15:49:14.038Z,17.13
2023-04-05T15:51:42.377Z,18.10
2023-04-05T15:54:09.295Z,18.52
2023-04-05T15:56:37.840Z,18.05
2023-04-05T15:59:10.704Z,18.77
2023-04-05T16:01:38.762Z,18.50
2023-04-05T16:04:08.215Z,17.92
2023-04-05T16:06:35.331Z,17.92
2023-04-05T16:09:02.418Z,17.45
2023-04-05T16:11:29.527Z,17.77
2023-04-05T16:13:57.049Z,18.92
2023-04-05T16:16:38.775Z,17.45
2023-04-05T16:19:12.844Z,18.75
2023-04-05T16:21:42.716Z,16.88
2023-04-05T16:24:09.585Z,18.38
2023-04-05T16:26:36.552Z,18.80
2023-04-05T16:29:03.741Z,19.08
2023-04-05T16:31:35.818Z,19.98
2023-04-05T16:34:08.780Z,19.88
2023-04-05T16:36:38.849Z,19.67
2023-04-05T16:39:05.803Z,19.67
2023-04-05T16:41:34.857Z,18.38
2023-04-05T16:44:01.729Z,19.13
2023-04-05T16:46:31.172Z,19.60
2023-04-05T16:49:00.350Z,20.40
2023-04-05T16:51:28.334Z,19.90
2023-04-05T16:53:55.590Z,19.13
2023-04-05T16:56:23.432Z,19.60
2023-04-05T16:58:51.346Z,19.15
2023-04-05T17:01:18.253Z,19.38
2023-04-05T17:03:47.164Z,19.90
2023-04-05T17:06:14.957Z,19.95
2023-04-05T17:08:42.292Z,20.23
2023-04-05T17:11:09.268Z,19.17
2023-04-05T17:13:36.223Z,20.17
2023-04-05T17:16:03.304Z,21.40
2023-04-05T17:18:30.153Z,19.83
2023-04-05T17:20:56.972Z,20.45
2023-04-05T17:23:24.632Z,22.35
2023-04-05T17:25:51.653Z,24.60
2023-04-05T17:28:18.489Z,23.77
2023-04-05T17:30:45.561Z,22.83
2023-04-05T17:33:12.695Z,28.35
2023-04-05T17:35:39.686Z,24.08
2023-04-05T17:38:06.611Z,21.05
2023-04-05T17:40:36.181Z,21.92
2023-04-05T17:43:02.932Z,21.58
2023-04-05T17:45:29.760Z,25.15
2023-04-05T17:48:00.696Z,24.35
2023-04-05T17:50:28.162Z,25.90
2023-04-05T17:52:56.986Z,24.70
2023-04-05T17:55:24.657Z,25.38
2023-04-05T17:57:51.482Z,24.90
2023-04-05T18:00:18.572Z,28.38
2023-04-05T18:02:45.774Z,24.58
2023-04-05T18:05:13.182Z,25.17
2023-04-05T18:07:42.530Z,29.52
2023-04-05T18:10:09.901Z,29.98
2023-04-05T18:12:37.750Z,26.95
2023-04-05T18:15:05.015Z,43.10
2023-04-05T18:17:31.936Z,26.80
2023-04-05T18:19:58.985Z,24.80
2023-04-05T18:22:26.484Z,23.92
2023-04-05T18:24:53.242Z,37.83
2023-04-05T18:27:20.109Z,24.30
2023-04-05T18:29:46.948Z,29.02
2023-04-05T18:32:17.324Z,35.33
2023-04-05T18:34:44.305Z,27.95
2023-04-05T18:37:11.589Z,25.65
2023-04-05T18:39:38.443Z,30.58
2023-04-05T18:42:08.304Z,33.45
2023-04-05T18:44:35.370Z,26.13
2023-04-05T18:47:02.359Z,49.17
2023-04-05T18:49:29.236Z,27.35
2023-04-05T18:51:56.271Z,63.65
2023-04-05T18:54:23.108Z,35.08
2023-04-05T18:56:50.070Z,32.13
2023-04-05T18:59:17.979Z,26.60
2023-04-05T19:01:44.824Z,48.22
2023-04-05T19:04:11.795Z,47.90
2023-04-05T19:06:38.696Z,52.17
2023-04-05T19:09:06.281Z,31.50
2023-04-05T19:11:33.432Z,43.95
2023-04-05T19:14:01.738Z,38.13
2023-04-05T19:16:28.693Z,63.33
2023-04-05T19:18:55.677Z,43.67
2023-04-05T19:21:23.091Z,34.67
2023-04-05T19:23:50.055Z,32.70
2023-04-05T19:26:16.976Z,32.83
2023-04-05T19:28:43.962Z,51.53
2023-04-05T19:31:11.140Z,30.52
2023-04-05T19:33:38.022Z,33.08
2023-04-05T19:36:05.615Z,35.78
2023-04-05T19:38:33.132Z,31.95
2023-04-05T19:41:00.396Z,37.47
2023-04-05T19:43:31.517Z,27.23
2023-04-05T19:46:00.470Z,31.88
2023-04-05T19:48:46.234Z,35.33
2023-04-05T19:51:14.824Z,29.45
2023-04-05T19:53:42.993Z,26.95
2023-04-05T19:56:24.917Z,25.52
2023-04-05T19:58:59.014Z,24.85
2023-04-05T20:01:39.511Z,24.67
2023-04-05T20:04:18.736Z,24.90
2023-04-05T20:06:52.857Z,24.25
2023-04-05T20:09:24.759Z,24.67
2023-04-05T20:12:00.146Z,23.75
2023-04-05T20:14:42.399Z,22.70
2023-04-05T20:17:09.859Z,23.13
2023-04-05T20:19:40.861Z,23.13
2023-04-05T20:22:08.916Z,23.80
2023-04-05T20:24:39.920Z,22.58
2023-04-05T20:27:06.818Z,23.10
2023-04-05T20:29:35.903Z,22.95
2023-04-05T20:32:02.949Z,22.23
2023-04-05T20:34:32.856Z,22.75
2023-04-05T20:37:11.322Z,22.80
2023-04-05T20:39:38.378Z,22.40
2023-04-05T20:42:05.305Z,21.25
2023-04-05T20:44:32.164Z,22.42
2023-04-05T20:46:59.202Z,23.48
2023-04-05T20:49:26.130Z,21.92
2023-04-05T20:51:55.843Z,24.20
2023-04-05T20:54:22.725Z,23.98
2023-04-05T20:56:49.537Z,24.50
2023-04-05T20:59:16.797Z,23.40
2023-04-05T21:01:43.750Z,22.00
2023-04-05T21:04:10.834Z,22.67
2023-04-05T21:06:40.385Z,22.80
2023-04-05T21:09:07.373Z,21.95
2023-04-05T21:11:34.317Z,21.80
2023-04-05T21:14:01.110Z,21.92
2023-04-05T21:16:27.982Z,20.83
2023-04-05T21:18:54.894Z,23.60
2023-04-05T21:21:21.854Z,22.17
2023-04-05T21:23:49.159Z,23.33
2023-04-05T21:26:16.420Z,23.10
2023-04-05T21:28:43.332Z,24.25
2023-04-05T21:31:10.782Z,23.27
2023-04-05T21:33:37.592Z,22.70
2023-04-05T21:36:04.793Z,24.88
2023-04-05T21:38:31.616Z,23.33
2023-04-05T21:40:58.453Z,21.73
2023-04-05T21:43:25.533Z,21.25
2023-04-05T21:45:53.141Z,22.23
2023-04-05T21:48:20.064Z,22.08
2023-04-05T21:50:46.909Z,24.63
2023-04-05T21:53:14.682Z,23.20
2023-04-05T21:55:41.632Z,24.30
2023-04-05T21:58:08.507Z,23.98
2023-04-05T22:00:35.317Z,23.17
2023-04-05T22:03:02.188Z,24.38
2023-04-05T22:05:37.002Z,23.23
2023-04-05T22:08:06.535Z,22.35
2023-04-05T22:10:34.078Z,20.52
2023-04-05T22:13:01.005Z,21.40
2023-04-05T22:15:27.840Z,22.33
2023-04-05T22:17:54.651Z,21.80
2023-04-05T22:20:21.553Z,20.33
2023-04-05T22:22:48.328Z,21.67
2023-04-05T22:25:15.622Z,20.67
2023-04-05T22:27:42.392Z,20.50
2023-04-05T22:30:09.445Z,19.48
2023-04-05T22:32:36.771Z,20.13
2023-04-05T22:35:04.453Z,19.33
2023-04-05T22:37:35.920Z,19.95
2023-04-05T22:40:07.174Z,20.02
2023-04-05T22:42:33.931Z,20.23
2023-04-05T22:45:03.498Z,19.92
2023-04-05T22:47:30.346Z,21.05
2023-04-05T22:49:57.295Z,20.08
2023-04-05T22:52:24.298Z,18.33
2023-04-05T22:54:51.090Z,18.85
2023-04-05T22:57:18.024Z,19.27
2023-04-05T22:59:44.871Z,19.65
2023-04-05T23:02:12.427Z,19.00
2023-04-05T23:04:39.575Z,17.20
2023-04-05T23:07:06.594Z,18.70
2023-04-05T23:09:33.660Z,17.00
2023-04-05T23:12:00.693Z,18.30
2023-04-05T23:14:27.508Z,20.65
2023-04-05T23:16:54.405Z,17.48
2023-04-05T23:19:21.442Z,19.90
2023-04-05T23:21:48.579Z,19.35
2023-04-05T23:24:15.525Z,19.33
2023-04-05T23:26:42.294Z,20.08
2023-04-05T23:29:09.271Z,18.05
2023-04-05T23:31:36.277Z,18.23
2023-04-05T23:34:03.211Z,16.60
2023-04-05T23:36:30.850Z,17.67
2023-04-05T23:38:58.653Z,19.10
2023-04-05T23:41:25.691Z,22.15
2023-04-05T23:43:52.603Z,21.40
2023-04-05T23:46:19.482Z,18.42
2023-04-05T23:48:46.474Z,20.95
2023-04-05T23:51:13.240Z,21.17
2023-04-05T23:53:40.034Z,18.25
2023-04-05T23:56:07.209Z,19.77
2023-04-05T23:58:34.077Z,18.15
